sensor_id;sensor_type;location;lat;lon;timestamp;temperature;humidity
16625;DHT22;8426;48.496;9.098;2023-02-24T00:03:57;5.50;99.90
16625;DHT22;8426;48.496;9.098;2023-02-24T00:09:03;5.60;99.90
16625;DHT22;8426;48.496;9.098;2023-02-24T00:14:10;5.60;99.90
16625;DHT22;8426;48.496;9.098;2023-02-24T00:19:20;5.60;99.90
16625;DHT22;8426;48.496;9.098;2023-02-24T00:24:25;5.60;99.90
16625;DHT22;8426;48.496;9.098;2023-02-24T00:29:29;5.60;99.90
16625;DHT22;8426;48.496;9.098;2023-02-24T00:34:35;5.70;99.90
16625;DHT22;8426;48.496;9.098;2023-02-24T00:39:39;5.70;99.90
16625;DHT22;8426;48.496;9.098;2023-02-24T00:44:51;5.70;99.90
16625;DHT22;8426;48.496;9.098;2023-02-24T00:49:57;5.70;99.90
16625;DHT22;8426;48.496;9.098;2023-02-24T00:55:00;5.80;99.90
16625;DHT22;8426;48.496;9.098;2023-02-24T01:00:07;5.80;99.90
16625;DHT22;8426;48.496;9.098;2023-02-24T01:05:15;5.80;99.90
16625;DHT22;8426;48.496;9.098;2023-02-24T01:10:19;5.80;99.90
16625;DHT22;8426;48.496;9.098;2023-02-24T01:15:24;5.80;99.90
16625;DHT22;8426;48.496;9.098;2023-02-24T01:20:29;5.80;99.90
16625;DHT22;8426;48.496;9.098;2023-02-24T01:25:33;5.90;99.90
16625;DHT22;8426;48.496;9.098;2023-02-24T01:30:42;5.80;99.90
16625;DHT22;8426;48.496;9.098;2023-02-24T01:35:47;5.90;99.90
16625;DHT22;8426;48.496;9.098;2023-02-24T01:41:03;5.90;99.90
16625;DHT22;8426;48.496;9.098;2023-02-24T01:46:07;5.90;99.90
16625;DHT22;8426;48.496;9.098;2023-02-24T01:51:16;5.90;99.90
16625;DHT22;8426;48.496;9.098;2023-02-24T01:56:21;5.90;99.90
16625;DHT22;8426;48.496;9.098;2023-02-24T02:01:24;5.90;99.90
16625;DHT22;8426;48.496;9.098;2023-02-24T02:06:29;5.90;99.90
16625;DHT22;8426;48.496;9.098;2023-02-24T02:11:33;5.90;99.90
16625;DHT22;8426;48.496;9.098;2023-02-24T02:16:59;6.00;99.90
16625;DHT22;8426;48.496;9.098;2023-02-24T02:22:25;5.90;99.90
16625;DHT22;8426;48.496;9.098;2023-02-24T02:28:04;5.90;99.90
16625;DHT22;8426;48.496;9.098;2023-02-24T02:33:47;5.90;99.90
16625;DHT22;8426;48.496;9.098;2023-02-24T02:38:56;5.90;99.90
16625;DHT22;8426;48.496;9.098;2023-02-24T02:44:05;5.90;99.90
16625;DHT22;8426;48.496;9.098;2023-02-24T02:49:21;6.00;99.90
16625;DHT22;8426;48.496;9.098;2023-02-24T02:54:29;5.90;99.90
16625;DHT22;8426;48.496;9.098;2023-02-24T02:59:47;5.90;99.90
16625;DHT22;8426;48.496;9.098;2023-02-24T03:04:54;5.90;99.90
16625;DHT22;8426;48.496;9.098;2023-02-24T03:10:02;6.00;99.90
16625;DHT22;8426;48.496;9.098;2023-02-24T03:15:18;5.90;99.90
16625;DHT22;8426;48.496;9.098;2023-02-24T03:20:31;5.90;99.90
16625;DHT22;8426;48.496;9.098;2023-02-24T03:25:39;6.00;99.90
16625;DHT22;8426;48.496;9.098;2023-02-24T03:30:48;6.00;99.90
16625;DHT22;8426;48.496;9.098;2023-02-24T03:36:04;5.90;99.90
16625;DHT22;8426;48.496;9.098;2023-02-24T03:41:14;5.90;99.90
16625;DHT22;8426;48.496;9.098;2023-02-24T03:46:18;6.00;99.90
16625;DHT22;8426;48.496;9.098;2023-02-24T03:51:23;6.00;99.90
16625;DHT22;8426;48.496;9.098;2023-02-24T03:56:45;5.90;99.90
16625;DHT22;8426;48.496;9.098;2023-02-24T04:01:53;5.90;99.90
16625;DHT22;8426;48.496;9.098;2023-02-24T04:07:08;5.80;99.90
16625;DHT22;8426;48.496;9.098;2023-02-24T04:12:18;5.80;99.90
16625;DHT22;8426;48.496;9.098;2023-02-24T04:17:27;5.80;99.90
16625;DHT22;8426;48.496;9.098;2023-02-24T04:22:34;5.90;99.90
16625;DHT22;8426;48.496;9.098;2023-02-24T04:27:39;5.90;99.90
16625;DHT22;8426;48.496;9.098;2023-02-24T04:32:48;5.90;99.90
16625;DHT22;8426;48.496;9.098;2023-02-24T04:37:59;5.90;99.90
16625;DHT22;8426;48.496;9.098;2023-02-24T04:43:06;5.90;99.90
16625;DHT22;8426;48.496;9.098;2023-02-24T04:48:10;5.90;99.90
16625;DHT22;8426;48.496;9.098;2023-02-24T04:53:16;6.00;99.90
16625;DHT22;8426;48.496;9.098;2023-02-24T04:58:21;6.00;99.90
16625;DHT22;8426;48.496;9.098;2023-02-24T05:03:26;6.10;99.90
16625;DHT22;8426;48.496;9.098;2023-02-24T05:08:33;6.10;99.90
16625;DHT22;8426;48.496;9.098;2023-02-24T05:13:37;6.10;99.90
16625;DHT22;8426;48.496;9.098;2023-02-24T05:18:48;6.10;99.90
16625;DHT22;8426;48.496;9.098;2023-02-24T05:24:15;6.10;99.90
16625;DHT22;8426;48.496;9.098;2023-02-24T05:29:20;6.00;99.90
16625;DHT22;8426;48.496;9.098;2023-02-24T05:34:24;6.00;99.90
16625;DHT22;8426;48.496;9.098;2023-02-24T05:39:29;5.90;99.90
16625;DHT22;8426;48.496;9.098;2023-02-24T05:44:34;5.90;99.90
16625;DHT22;8426;48.496;9.098;2023-02-24T05:49:38;6.00;99.90
16625;DHT22;8426;48.496;9.098;2023-02-24T05:54:43;5.90;99.90
16625;DHT22;8426;48.496;9.098;2023-02-24T05:59:51;6.00;99.90
16625;DHT22;8426;48.496;9.098;2023-02-24T06:04:56;6.00;99.90
16625;DHT22;8426;48.496;9.098;2023-02-24T06:10:06;6.00;99.90
16625;DHT22;8426;48.496;9.098;2023-02-24T06:15:18;6.00;99.90
16625;DHT22;8426;48.496;9.098;2023-02-24T06:20:23;5.90;99.90
16625;DHT22;8426;48.496;9.098;2023-02-24T06:25:32;5.90;99.90
16625;DHT22;8426;48.496;9.098;2023-02-24T06:30:35;5.90;99.90
16625;DHT22;8426;48.496;9.098;2023-02-24T06:35:38;5.90;99.90
16625;DHT22;8426;48.496;9.098;2023-02-24T06:40:43;5.90;99.90
16625;DHT22;8426;48.496;9.098;2023-02-24T06:45:48;6.00;99.90
16625;DHT22;8426;48.496;9.098;2023-02-24T06:50:52;6.00;99.90
16625;DHT22;8426;48.496;9.098;2023-02-24T06:55:57;6.10;99.90
16625;DHT22;8426;48.496;9.098;2023-02-24T07:01:04;6.10;99.90
16625;DHT22;8426;48.496;9.098;2023-02-24T07:06:09;6.20;99.90
16625;DHT22;8426;48.496;9.098;2023-02-24T07:11:28;6.30;99.90
16625;DHT22;8426;48.496;9.098;2023-02-24T07:16:31;6.30;99.90
16625;DHT22;8426;48.496;9.098;2023-02-24T07:21:37;6.40;99.90
16625;DHT22;8426;48.496;9.098;2023-02-24T07:26:42;6.50;99.90
16625;DHT22;8426;48.496;9.098;2023-02-24T07:31:52;6.90;99.90
16625;DHT22;8426;48.496;9.098;2023-02-24T07:37:01;7.30;99.90
16625;DHT22;8426;48.496;9.098;2023-02-24T07:42:11;7.60;99.90
16625;DHT22;8426;48.496;9.098;2023-02-24T07:47:15;7.50;99.90
16625;DHT22;8426;48.496;9.098;2023-02-24T07:52:18;7.50;99.90
16625;DHT22;8426;48.496;9.098;2023-02-24T07:57:23;7.60;99.90
16625;DHT22;8426;48.496;9.098;2023-02-24T08:02:27;7.60;99.90
16625;DHT22;8426;48.496;9.098;2023-02-24T08:07:30;7.70;99.90
16625;DHT22;8426;48.496;9.098;2023-02-24T08:12:38;7.90;99.90
16625;DHT22;8426;48.496;9.098;2023-02-24T08:17:43;8.40;99.90
16625;DHT22;8426;48.496;9.098;2023-02-24T08:22:49;8.30;99.90
16625;DHT22;8426;48.496;9.098;2023-02-24T08:27:55;8.10;99.90
16625;DHT22;8426;48.496;9.098;2023-02-24T08:33:10;8.30;99.90
16625;DHT22;8426;48.496;9.098;2023-02-24T08:38:19;8.30;99.90
16625;DHT22;8426;48.496;9.098;2023-02-24T08:43:29;8.40;99.90
16625;DHT22;8426;48.496;9.098;2023-02-24T08:48:36;8.60;99.90
16625;DHT22;8426;48.496;9.098;2023-02-24T08:53:43;8.60;99.90
16625;DHT22;8426;48.496;9.098;2023-02-24T08:58:51;8.50;99.90
16625;DHT22;8426;48.496;9.098;2023-02-24T09:03:58;8.70;99.90
16625;DHT22;8426;48.496;9.098;2023-02-24T09:09:05;8.80;99.90
16625;DHT22;8426;48.496;9.098;2023-02-24T09:14:28;9.10;99.90
16625;DHT22;8426;48.496;9.098;2023-02-24T09:19:40;9.00;99.90
16625;DHT22;8426;48.496;9.098;2023-02-24T09:25:26;8.70;99.90
16625;DHT22;8426;48.496;9.098;2023-02-24T09:30:44;8.40;99.90
16625;DHT22;8426;48.496;9.098;2023-02-24T09:35:58;8.40;99.90
16625;DHT22;8426;48.496;9.098;2023-02-24T09:41:23;8.80;99.90
16625;DHT22;8426;48.496;9.098;2023-02-24T09:46:42;9.10;99.90
16625;DHT22;8426;48.496;9.098;2023-02-24T09:51:55;9.00;99.90
16625;DHT22;8426;48.496;9.098;2023-02-24T09:57:14;9.00;99.90
16625;DHT22;8426;48.496;9.098;2023-02-24T10:02:32;9.00;99.90
16625;DHT22;8426;48.496;9.098;2023-02-24T10:07:45;9.30;99.90
16625;DHT22;8426;48.496;9.098;2023-02-24T10:12:52;9.40;99.90
16625;DHT22;8426;48.496;9.098;2023-02-24T10:18:19;9.40;99.90
16625;DHT22;8426;48.496;9.098;2023-02-24T10:23:38;9.70;99.90
16625;DHT22;8426;48.496;9.098;2023-02-24T10:28:51;9.70;99.90
16625;DHT22;8426;48.496;9.098;2023-02-24T10:34:07;9.80;99.90
16625;DHT22;8426;48.496;9.098;2023-02-24T10:39:15;9.70;99.90
16625;DHT22;8426;48.496;9.098;2023-02-24T10:44:22;9.50;99.90
16625;DHT22;8426;48.496;9.098;2023-02-24T10:49:27;9.30;99.90
16625;DHT22;8426;48.496;9.098;2023-02-24T10:54:30;9.30;99.90
16625;DHT22;8426;48.496;9.098;2023-02-24T10:59:56;8.90;99.90
16625;DHT22;8426;48.496;9.098;2023-02-24T11:05:46;8.80;99.90
16625;DHT22;8426;48.496;9.098;2023-02-24T11:11:12;8.90;99.90
16625;DHT22;8426;48.496;9.098;2023-02-24T11:16:27;9.00;99.90
16625;DHT22;8426;48.496;9.098;2023-02-24T11:21:53;9.10;99.90
16625;DHT22;8426;48.496;9.098;2023-02-24T11:26:57;9.30;99.90
16625;DHT22;8426;48.496;9.098;2023-02-24T11:32:20;9.60;99.90
16625;DHT22;8426;48.496;9.098;2023-02-24T11:37:38;9.80;99.90
16625;DHT22;8426;48.496;9.098;2023-02-24T11:42:52;10.50;99.90
16625;DHT22;8426;48.496;9.098;2023-02-24T11:48:09;11.20;99.90
16625;DHT22;8426;48.496;9.098;2023-02-24T11:53:31;11.60;99.90
16625;DHT22;8426;48.496;9.098;2023-02-24T11:58:40;11.90;99.90
16625;DHT22;8426;48.496;9.098;2023-02-24T12:03:53;11.60;99.90
16625;DHT22;8426;48.496;9.098;2023-02-24T12:09:13;11.70;99.90
16625;DHT22;8426;48.496;9.098;2023-02-24T12:14:29;12.60;99.90
16625;DHT22;8426;48.496;9.098;2023-02-24T12:19:38;13.50;99.90
16625;DHT22;8426;48.496;9.098;2023-02-24T12:24:49;13.80;99.90
16625;DHT22;8426;48.496;9.098;2023-02-24T12:30:04;13.70;99.90
16625;DHT22;8426;48.496;9.098;2023-02-24T12:35:28;13.10;99.90
16625;DHT22;8426;48.496;9.098;2023-02-24T12:40:43;12.70;99.90
16625;DHT22;8426;48.496;9.098;2023-02-24T12:46:01;12.00;99.90
16625;DHT22;8426;48.496;9.098;2023-02-24T12:51:20;12.00;99.90
16625;DHT22;8426;48.496;9.098;2023-02-24T12:56:33;12.10;99.90
16625;DHT22;8426;48.496;9.098;2023-02-24T13:01:47;11.90;99.90
16625;DHT22;8426;48.496;9.098;2023-02-24T13:07:03;12.20;99.90
16625;DHT22;8426;48.496;9.098;2023-02-24T13:12:17;12.20;99.90
16625;DHT22;8426;48.496;9.098;2023-02-24T13:17:25;12.40;99.90
16625;DHT22;8426;48.496;9.098;2023-02-24T13:22:31;12.30;99.90
16625;DHT22;8426;48.496;9.098;2023-02-24T13:27:39;11.90;99.90
16625;DHT22;8426;48.496;9.098;2023-02-24T13:32:46;11.40;99.90
16625;DHT22;8426;48.496;9.098;2023-02-24T13:38:19;11.10;99.90
16625;DHT22;8426;48.496;9.098;2023-02-24T13:43:31;11.10;99.90
16625;DHT22;8426;48.496;9.098;2023-02-24T13:48:49;11.30;99.90
16625;DHT22;8426;48.496;9.098;2023-02-24T13:54:06;11.50;99.90
16625;DHT22;8426;48.496;9.098;2023-02-24T13:59:43;11.20;99.90
16625;DHT22;8426;48.496;9.098;2023-02-24T14:04:53;11.40;99.90
16625;DHT22;8426;48.496;9.098;2023-02-24T14:10:14;11.50;99.90
16625;DHT22;8426;48.496;9.098;2023-02-24T14:15:24;11.10;99.90
16625;DHT22;8426;48.496;9.098;2023-02-24T14:20:31;10.70;99.90
16625;DHT22;8426;48.496;9.098;2023-02-24T14:25:37;10.60;99.90
16625;DHT22;8426;48.496;9.098;2023-02-24T14:30:42;10.60;99.90
16625;DHT22;8426;48.496;9.098;2023-02-24T14:35:51;10.40;99.90
16625;DHT22;8426;48.496;9.098;2023-02-24T14:40:55;10.30;99.90
16625;DHT22;8426;48.496;9.098;2023-02-24T14:46:04;10.20;99.90
16625;DHT22;8426;48.496;9.098;2023-02-24T14:51:21;10.10;99.90
16625;DHT22;8426;48.496;9.098;2023-02-24T14:56:27;10.10;99.90
16625;DHT22;8426;48.496;9.098;2023-02-24T15:01:35;10.00;99.90
16625;DHT22;8426;48.496;9.098;2023-02-24T15:06:42;10.00;99.90
16625;DHT22;8426;48.496;9.098;2023-02-24T15:11:48;9.80;99.90
16625;DHT22;8426;48.496;9.098;2023-02-24T15:17:13;9.80;99.90
16625;DHT22;8426;48.496;9.098;2023-02-24T15:22:24;10.00;99.90
16625;DHT22;8426;48.496;9.098;2023-02-24T15:27:28;10.20;99.90
16625;DHT22;8426;48.496;9.098;2023-02-24T15:32:34;10.50;99.90
16625;DHT22;8426;48.496;9.098;2023-02-24T15:37:40;10.40;99.90
16625;DHT22;8426;48.496;9.098;2023-02-24T15:42:50;10.40;99.90
16625;DHT22;8426;48.496;9.098;2023-02-24T15:47:57;10.30;99.90
16625;DHT22;8426;48.496;9.098;2023-02-24T15:53:06;10.30;99.90
16625;DHT22;8426;48.496;9.098;2023-02-24T15:58:16;10.40;99.90
16625;DHT22;8426;48.496;9.098;2023-02-24T16:03:21;10.50;99.90
16625;DHT22;8426;48.496;9.098;2023-02-24T16:08:25;10.40;99.90
16625;DHT22;8426;48.496;9.098;2023-02-24T16:13:29;10.20;99.90
16625;DHT22;8426;48.496;9.098;2023-02-24T16:18:34;10.00;99.90
16625;DHT22;8426;48.496;9.098;2023-02-24T16:23:41;9.80;99.90
16625;DHT22;8426;48.496;9.098;2023-02-24T16:28:53;9.60;99.90
16625;DHT22;8426;48.496;9.098;2023-02-24T16:33:59;9.50;99.90
16625;DHT22;8426;48.496;9.098;2023-02-24T16:39:03;9.40;99.90
16625;DHT22;8426;48.496;9.098;2023-02-24T16:44:09;9.40;99.90
16625;DHT22;8426;48.496;9.098;2023-02-24T16:49:18;9.30;99.90
16625;DHT22;8426;48.496;9.098;2023-02-24T16:54:22;9.20;99.90
16625;DHT22;8426;48.496;9.098;2023-02-24T16:59:35;9.20;99.90
16625;DHT22;8426;48.496;9.098;2023-02-24T17:04:41;9.10;99.90
16625;DHT22;8426;48.496;9.098;2023-02-24T17:09:44;9.00;99.90
16625;DHT22;8426;48.496;9.098;2023-02-24T17:14:49;8.90;99.90
16625;DHT22;8426;48.496;9.098;2023-02-24T17:19:54;8.90;99.90
16625;DHT22;8426;48.496;9.098;2023-02-24T17:24:58;8.70;99.90
16625;DHT22;8426;48.496;9.098;2023-02-24T17:30:04;8.50;99.90
16625;DHT22;8426;48.496;9.098;2023-02-24T17:35:09;8.40;99.90
16625;DHT22;8426;48.496;9.098;2023-02-24T17:40:20;8.20;99.90
16625;DHT22;8426;48.496;9.098;2023-02-24T17:45:30;8.10;99.90
16625;DHT22;8426;48.496;9.098;2023-02-24T17:50:36;8.10;99.90
16625;DHT22;8426;48.496;9.098;2023-02-24T17:55:40;8.00;99.90
16625;DHT22;8426;48.496;9.098;2023-02-24T18:01:05;8.00;99.90
16625;DHT22;8426;48.496;9.098;2023-02-24T18:06:11;8.00;99.90
16625;DHT22;8426;48.496;9.098;2023-02-24T18:11:16;7.90;99.90
16625;DHT22;8426;48.496;9.098;2023-02-24T18:16:20;7.90;99.90
16625;DHT22;8426;48.496;9.098;2023-02-24T18:21:25;7.80;99.90
16625;DHT22;8426;48.496;9.098;2023-02-24T18:26:29;7.80;99.90
16625;DHT22;8426;48.496;9.098;2023-02-24T18:31:33;7.80;99.90
16625;DHT22;8426;48.496;9.098;2023-02-24T18:36:38;7.70;99.90
16625;DHT22;8426;48.496;9.098;2023-02-24T18:41:42;7.60;99.90
16625;DHT22;8426;48.496;9.098;2023-02-24T18:46:45;7.60;99.90
16625;DHT22;8426;48.496;9.098;2023-02-24T18:51:51;7.60;99.90
16625;DHT22;8426;48.496;9.098;2023-02-24T18:56:54;7.50;99.90
16625;DHT22;8426;48.496;9.098;2023-02-24T19:01:58;7.50;99.90
16625;DHT22;8426;48.496;9.098;2023-02-24T19:07:03;7.50;99.90
16625;DHT22;8426;48.496;9.098;2023-02-24T19:12:08;7.30;99.90
16625;DHT22;8426;48.496;9.098;2023-02-24T19:17:13;7.30;99.90
16625;DHT22;8426;48.496;9.098;2023-02-24T19:22:17;7.10;99.90
16625;DHT22;8426;48.496;9.098;2023-02-24T19:27:23;6.90;99.90
16625;DHT22;8426;48.496;9.098;2023-02-24T19:32:27;6.80;99.90
16625;DHT22;8426;48.496;9.098;2023-02-24T19:37:32;6.60;99.90
16625;DHT22;8426;48.496;9.098;2023-02-24T19:42:35;6.50;99.90
16625;DHT22;8426;48.496;9.098;2023-02-24T19:47:39;6.30;99.90
16625;DHT22;8426;48.496;9.098;2023-02-24T19:52:45;6.30;99.90
16625;DHT22;8426;48.496;9.098;2023-02-24T19:57:52;6.30;99.90
16625;DHT22;8426;48.496;9.098;2023-02-24T20:02:56;6.20;99.90
16625;DHT22;8426;48.496;9.098;2023-02-24T20:08:01;6.10;99.90
16625;DHT22;8426;48.496;9.098;2023-02-24T20:13:06;6.00;99.90
16625;DHT22;8426;48.496;9.098;2023-02-24T20:18:09;6.00;99.90
16625;DHT22;8426;48.496;9.098;2023-02-24T20:23:14;5.90;99.90
16625;DHT22;8426;48.496;9.098;2023-02-24T20:28:18;5.90;99.90
16625;DHT22;8426;48.496;9.098;2023-02-24T20:33:22;5.80;99.90
16625;DHT22;8426;48.496;9.098;2023-02-24T20:38:28;5.70;99.90
16625;DHT22;8426;48.496;9.098;2023-02-24T20:43:34;5.70;99.90
16625;DHT22;8426;48.496;9.098;2023-02-24T20:48:37;5.60;99.90
16625;DHT22;8426;48.496;9.098;2023-02-24T20:53:42;5.60;99.90
16625;DHT22;8426;48.496;9.098;2023-02-24T20:59:00;5.50;99.90
16625;DHT22;8426;48.496;9.098;2023-02-24T21:04:07;5.60;99.90
16625;DHT22;8426;48.496;9.098;2023-02-24T21:09:13;5.50;99.90
16625;DHT22;8426;48.496;9.098;2023-02-24T21:14:16;5.50;99.90
16625;DHT22;8426;48.496;9.098;2023-02-24T21:19:21;5.40;99.90
16625;DHT22;8426;48.496;9.098;2023-02-24T21:24:26;5.50;99.90
16625;DHT22;8426;48.496;9.098;2023-02-24T21:29:31;5.50;99.90
16625;DHT22;8426;48.496;9.098;2023-02-24T21:34:37;5.50;99.90
16625;DHT22;8426;48.496;9.098;2023-02-24T21:39:42;5.60;99.90
16625;DHT22;8426;48.496;9.098;2023-02-24T21:44:48;5.60;99.90
16625;DHT22;8426;48.496;9.098;2023-02-24T21:49:52;5.60;99.90
16625;DHT22;8426;48.496;9.098;2023-02-24T21:54:57;5.60;99.90
16625;DHT22;8426;48.496;9.098;2023-02-24T22:00:00;5.60;99.90
16625;DHT22;8426;48.496;9.098;2023-02-24T22:05:09;5.60;99.90
16625;DHT22;8426;48.496;9.098;2023-02-24T22:10:16;5.50;99.90
16625;DHT22;8426;48.496;9.098;2023-02-24T22:15:20;5.50;99.90
16625;DHT22;8426;48.496;9.098;2023-02-24T22:20:23;5.50;99.90
16625;DHT22;8426;48.496;9.098;2023-02-24T22:25:28;5.50;99.90
16625;DHT22;8426;48.496;9.098;2023-02-24T22:30:32;5.40;99.90
16625;DHT22;8426;48.496;9.098;2023-02-24T22:35:37;5.40;99.90
16625;DHT22;8426;48.496;9.098;2023-02-24T22:40:41;5.40;99.90
16625;DHT22;8426;48.496;9.098;2023-02-24T22:45:54;5.40;99.90
16625;DHT22;8426;48.496;9.098;2023-02-24T22:51:01;5.30;99.90
16625;DHT22;8426;48.496;9.098;2023-02-24T22:56:09;5.30;99.90
16625;DHT22;8426;48.496;9.098;2023-02-24T23:01:15;4.70;99.90
16625;DHT22;8426;48.496;9.098;2023-02-24T23:06:23;4.20;99.90
16625;DHT22;8426;48.496;9.098;2023-02-24T23:11:30;4.00;99.90
16625;DHT22;8426;48.496;9.098;2023-02-24T23:16:36;3.90;99.90
16625;DHT22;8426;48.496;9.098;2023-02-24T23:21:41;3.90;99.90
16625;DHT22;8426;48.496;9.098;2023-02-24T23:26:47;4.00;99.90
16625;DHT22;8426;48.496;9.098;2023-02-24T23:31:52;3.90;99.90
16625;DHT22;8426;48.496;9.098;2023-02-24T23:36:56;3.80;99.90
16625;DHT22;8426;48.496;9.098;2023-02-24T23:42:00;3.80;99.90
16625;DHT22;8426;48.496;9.098;2023-02-24T23:47:04;3.80;99.90
16625;DHT22;8426;48.496;9.098;2023-02-24T23:52:07;3.70;99.90
16625;DHT22;8426;48.496;9.098;2023-02-24T23:57:14;3.70;99.90
